メインページ
METAR-TAF:

METAR-TAF

空港 :

Chatham-Kent Municipal Airport

チャタム・ケント, オンタリオ州, カナダ

緯度: 42-18-22N, 経度: 82-04-54W, 海抜: 197m

現時点の気象観測

当レポートは18分前の16:50(UTC)に作成
北/北東の風 7kt
気温 24°C
湿度 74%
気圧 1014 hPa
視程: 14.5km
高度2000ftの千切れ雲あり
高度20000ftの千切れ雲あり

METAR: CYCK 211650Z AUTO 03007KT 9SM BKN020 BKN200 24/19 A2995 RMK SLP141 DENSITY ALT 1800FT

時間: 13:08 (17:08 UTC)


TAF: 見つかりません

4,000以上の空港の気象観測と天気予報(METAR報とTAF報)

利用可能な観測所は地図上に黄色い丸と赤い丸で示す。

丸の上にカーソルを重ねると観測所名を参照できる。

次にクリックすると気象観測と天気予報を参照できる。

マップの切り替え:黒色「×」印の緑ボタンをクリックして拡大、「-」印の緑ボタンをクリックして縮小、緑色の三角印をクリックして隣りの地図に切り替え


METAR-TAF: